createdAt,value
2019-05-11T00:02:21.142Z,99.90
2019-05-11T00:04:50.222Z,99.90
2019-05-11T00:07:19.291Z,99.90
2019-05-11T00:09:57.469Z,99.90
2019-05-11T00:12:19.163Z,99.90
2019-05-11T00:14:48.256Z,99.90
2019-05-11T00:17:17.270Z,99.90
2019-05-11T00:19:46.465Z,99.90
2019-05-11T00:22:15.620Z,99.90
2019-05-11T00:24:44.697Z,99.90
2019-05-11T00:27:13.901Z,99.90
2019-05-11T00:29:43.422Z,99.90
2019-05-11T00:32:12.507Z,99.90
2019-05-11T00:34:41.624Z,99.90
2019-05-11T00:37:10.665Z,99.90
2019-05-11T00:39:39.721Z,99.90
2019-05-11T00:42:08.794Z,99.90
2019-05-11T00:44:37.917Z,99.90
2019-05-11T00:47:06.985Z,99.90
2019-05-11T00:49:36.089Z,99.90
2019-05-11T00:52:05.164Z,99.90
2019-05-11T00:54:34.315Z,99.90
2019-05-11T00:57:03.395Z,99.90
2019-05-11T00:59:32.429Z,99.90
2019-05-11T01:02:01.463Z,99.90
2019-05-11T01:04:30.542Z,99.90
2019-05-11T01:06:59.733Z,99.90
2019-05-11T01:09:28.898Z,99.90
2019-05-11T01:11:57.998Z,99.90
2019-05-11T01:14:27.229Z,99.90
2019-05-11T01:16:56.309Z,99.90
2019-05-11T01:19:25.434Z,99.90
2019-05-11T01:21:54.516Z,99.90
2019-05-11T01:24:23.633Z,99.90
2019-05-11T01:26:52.707Z,99.90
2019-05-11T01:29:21.833Z,99.90
2019-05-11T01:31:50.977Z,99.90
2019-05-11T01:34:20.093Z,99.90
2019-05-11T01:36:49.203Z,99.90
2019-05-11T01:39:18.561Z,99.90
2019-05-11T01:41:47.733Z,99.90
2019-05-11T01:44:16.877Z,99.90
2019-05-11T01:46:45.922Z,99.90
2019-05-11T01:49:15.066Z,99.90
2019-05-11T01:51:44.182Z,99.90
2019-05-11T01:54:13.526Z,99.90
2019-05-11T01:56:42.921Z,99.90
2019-05-11T01:59:12.018Z,99.90
2019-05-11T02:01:41.302Z,99.90
2019-05-11T02:04:10.626Z,99.90
2019-05-11T02:06:39.922Z,99.90
2019-05-11T02:09:09.417Z,99.90
2019-05-11T02:11:38.882Z,99.90
2019-05-11T02:14:08.141Z,99.90
2019-05-11T02:16:37.412Z,99.90
2019-05-11T02:19:06.652Z,99.90
2019-05-11T02:21:36.018Z,99.90
2019-05-11T02:24:05.155Z,99.90
2019-05-11T02:26:34.950Z,99.90
2019-05-11T02:29:04.165Z,99.90
2019-05-11T02:31:33.332Z,99.90
2019-05-11T02:34:02.837Z,99.90
2019-05-11T02:36:32.170Z,99.90
2019-05-11T02:39:01.366Z,99.90
2019-05-11T02:41:36.240Z,99.90
2019-05-11T02:44:01.595Z,99.90
2019-05-11T02:46:30.723Z,99.90
2019-05-11T02:48:59.869Z,99.90
2019-05-11T02:51:30.279Z,99.90
2019-05-11T02:53:59.659Z,99.90
2019-05-11T02:56:28.966Z,99.90
2019-05-11T02:58:58.186Z,99.90
2019-05-11T03:01:27.448Z,99.90
2019-05-11T03:03:56.601Z,99.90
2019-05-11T03:06:25.894Z,99.90
2019-05-11T03:08:55.115Z,99.90
2019-05-11T03:11:24.553Z,99.90
2019-05-11T03:13:53.822Z,99.90
2019-05-11T03:16:23.139Z,99.90
2019-05-11T03:18:52.283Z,99.90
2019-05-11T03:21:21.489Z,99.90
2019-05-11T03:23:50.831Z,99.90
2019-05-11T03:26:20.003Z,99.90
2019-05-11T03:28:49.154Z,99.90
2019-05-11T03:31:18.462Z,99.90
2019-05-11T03:33:47.616Z,99.90
2019-05-11T03:36:16.831Z,99.90
2019-05-11T03:38:46.045Z,99.90
2019-05-11T03:41:15.298Z,99.90
2019-05-11T03:43:44.478Z,99.90
2019-05-11T03:46:13.729Z,99.90
2019-05-11T03:48:43.180Z,99.90
2019-05-11T03:51:12.970Z,99.90
2019-05-11T03:53:42.220Z,99.90
2019-05-11T03:56:16.003Z,99.90
2019-05-11T03:58:45.266Z,99.90
2019-05-11T04:01:14.497Z,99.90
2019-05-11T04:03:44.008Z,99.90
2019-05-11T04:06:13.294Z,99.90
2019-05-11T04:08:42.582Z,99.90
2019-05-11T04:11:12.098Z,99.90
2019-05-11T04:13:41.810Z,99.90
2019-05-11T04:16:11.355Z,99.90
2019-05-11T04:18:40.599Z,99.90
2019-05-11T04:21:09.883Z,99.90
2019-05-11T04:23:39.121Z,99.90
2019-05-11T04:26:08.510Z,99.90
2019-05-11T04:28:37.675Z,99.90
2019-05-11T04:31:06.853Z,99.90
2019-05-11T04:33:36.006Z,99.90
2019-05-11T04:36:05.266Z,99.90
2019-05-11T04:38:34.603Z,99.90
2019-05-11T04:41:03.741Z,99.90
2019-05-11T04:43:32.932Z,99.90
2019-05-11T04:46:02.230Z,99.90
2019-05-11T04:48:31.434Z,99.90
2019-05-11T04:51:00.583Z,99.90
2019-05-11T04:53:29.794Z,99.90
2019-05-11T04:55:59.022Z,99.90
2019-05-11T04:58:28.186Z,99.90
2019-05-11T05:00:57.425Z,99.90
2019-05-11T05:03:39.816Z,99.90
2019-05-11T05:05:58.014Z,99.90
2019-05-11T05:08:28.079Z,99.90
2019-05-11T05:10:58.615Z,99.90
2019-05-11T05:13:29.514Z,99.90
2019-05-11T05:15:59.097Z,99.90
2019-05-11T05:18:28.254Z,99.90
2019-05-11T05:20:57.452Z,99.90
2019-05-11T05:23:26.682Z,99.90
2019-05-11T05:25:55.937Z,99.90
2019-05-11T05:28:25.122Z,99.90
2019-05-11T05:30:54.380Z,99.90
2019-05-11T05:33:23.647Z,99.90
2019-05-11T05:35:52.829Z,99.90
2019-05-11T05:38:22.295Z,99.90
2019-05-11T05:40:51.449Z,99.90
2019-05-11T05:43:28.164Z,99.90
2019-05-11T05:45:51.497Z,99.90
2019-05-11T05:48:20.671Z,99.90
2019-05-11T05:50:49.822Z,99.90
2019-05-11T05:53:19.227Z,99.90
2019-05-11T05:55:48.449Z,99.90
2019-05-11T05:58:17.737Z,99.90
2019-05-11T06:00:47.013Z,99.90
2019-05-11T06:03:16.581Z,99.90
2019-05-11T06:05:45.890Z,99.90
2019-05-11T06:08:15.025Z,99.90
2019-05-11T06:10:44.298Z,99.90
2019-05-11T06:13:13.587Z,99.90
2019-05-11T06:15:43.563Z,99.90
2019-05-11T06:18:12.749Z,99.90
2019-05-11T06:20:42.010Z,99.90
2019-05-11T06:23:11.274Z,99.90
2019-05-11T06:25:40.510Z,99.90
2019-05-11T06:28:09.724Z,99.90
2019-05-11T06:30:39.095Z,99.90
2019-05-11T06:33:08.393Z,99.90
2019-05-11T06:35:37.561Z,99.90
2019-05-11T06:38:06.689Z,99.90
2019-05-11T06:40:35.853Z,99.90
2019-05-11T06:43:05.120Z,99.90
2019-05-11T06:45:34.329Z,99.90
2019-05-11T06:48:03.573Z,99.90
2019-05-11T06:50:32.909Z,99.90
2019-05-11T06:53:02.065Z,99.90
2019-05-11T06:55:31.477Z,99.90
2019-05-11T06:58:00.742Z,99.90
2019-05-11T07:00:29.891Z,99.90
2019-05-11T07:02:59.080Z,99.90
2019-05-11T07:05:28.283Z,99.90
2019-05-11T07:07:57.507Z,99.90
2019-05-11T07:10:26.730Z,99.90
2019-05-11T07:12:55.961Z,99.90
2019-05-11T07:15:25.312Z,99.90
2019-05-11T07:17:54.617Z,99.90
2019-05-11T07:20:23.848Z,99.90
2019-05-11T07:22:53.037Z,99.90
2019-05-11T07:25:22.277Z,99.90
2019-05-11T07:27:51.520Z,99.90
2019-05-11T07:30:20.971Z,99.90
2019-05-11T07:32:50.153Z,99.90
2019-05-11T07:35:19.357Z,99.90
2019-05-11T07:37:48.612Z,99.90
2019-05-11T07:40:18.805Z,99.90
2019-05-11T07:42:48.678Z,99.90
2019-05-11T07:45:18.185Z,99.90
2019-05-11T07:47:48.538Z,99.90
2019-05-11T07:50:18.314Z,99.90
2019-05-11T07:52:48.439Z,99.90
2019-05-11T07:55:18.983Z,99.90
2019-05-11T07:57:48.529Z,99.90
2019-05-11T08:00:18.589Z,99.90
2019-05-11T08:02:48.154Z,99.90
2019-05-11T08:05:18.175Z,99.90
2019-05-11T08:07:48.184Z,99.90
2019-05-11T08:10:18.608Z,99.90
2019-05-11T08:12:48.327Z,99.90
2019-05-11T08:15:18.553Z,99.90
2019-05-11T08:17:48.779Z,99.90
2019-05-11T08:20:18.761Z,99.90
2019-05-11T08:22:48.343Z,99.90
2019-05-11T08:25:18.314Z,99.90
2019-05-11T08:27:48.573Z,99.90
2019-05-11T08:30:18.945Z,99.90
2019-05-11T08:35:18.773Z,99.90
2019-05-11T08:37:48.091Z,99.90
2019-05-11T08:40:18.529Z,99.90
2019-05-11T08:42:48.367Z,99.90
2019-05-11T08:45:24.285Z,99.90
2019-05-11T08:47:48.962Z,99.60
2019-05-11T08:50:18.917Z,98.80
2019-05-11T08:52:48.194Z,98.80
2019-05-11T08:55:19.001Z,98.90
2019-05-11T08:57:48.480Z,98.40
2019-05-11T09:00:19.851Z,98.20
2019-05-11T09:02:50.696Z,98.10
2019-05-11T09:05:19.912Z,97.90
2019-05-11T09:07:49.078Z,97.70
2019-05-11T09:10:18.703Z,97.90
2019-05-11T09:12:48.816Z,97.50
2019-05-11T09:15:32.376Z,97.50
2019-05-11T09:17:49.283Z,97.50
2019-05-11T09:20:18.445Z,96.90
2019-05-11T09:22:48.469Z,97.00
2019-05-11T09:25:18.511Z,97.20
2019-05-11T09:27:48.435Z,97.10
2019-05-11T09:30:18.605Z,97.00
2019-05-11T09:32:47.990Z,97.00
2019-05-11T09:35:18.941Z,97.20
2019-05-11T09:37:48.576Z,97.60
2019-05-11T09:40:18.392Z,97.40
2019-05-11T09:42:48.029Z,96.70
2019-05-11T09:45:18.646Z,96.80
2019-05-11T09:47:48.175Z,97.00
2019-05-11T09:50:18.073Z,96.50
2019-05-11T09:52:48.912Z,96.40
2019-05-11T09:55:19.186Z,96.40
2019-05-11T09:57:48.821Z,96.40
2019-05-11T10:00:18.577Z,96.50
2019-05-11T10:02:48.771Z,96.70
2019-05-11T10:05:18.791Z,95.80
2019-05-11T10:07:48.605Z,95.50
2019-05-11T10:10:18.626Z,95.50
2019-05-11T10:12:48.983Z,94.90
2019-05-11T10:15:19.069Z,94.90
2019-05-11T10:17:48.408Z,94.90
2019-05-11T10:20:18.361Z,94.80
2019-05-11T10:22:48.667Z,94.50
2019-05-11T10:25:18.332Z,94.90
2019-05-11T10:27:48.969Z,94.30
2019-05-11T10:30:19.576Z,94.20
2019-05-11T10:32:49.051Z,94.20
2019-05-11T10:35:18.574Z,94.00
2019-05-11T10:37:47.921Z,94.00
2019-05-11T10:40:18.960Z,93.90
2019-05-11T10:42:48.555Z,93.80
2019-05-11T10:45:18.111Z,93.80
2019-05-11T10:47:48.988Z,94.00
2019-05-11T10:50:18.832Z,94.00
2019-05-11T10:52:48.482Z,94.00
2019-05-11T10:55:19.304Z,93.90
2019-05-11T10:57:48.929Z,94.00
2019-05-11T11:00:18.745Z,94.20
2019-05-11T11:02:47.947Z,94.30
2019-05-11T11:05:18.799Z,94.20
2019-05-11T11:07:48.539Z,94.30
2019-05-11T11:10:18.322Z,94.20
2019-05-11T11:12:48.922Z,94.00
2019-05-11T11:15:18.466Z,94.00
2019-05-11T11:17:48.587Z,94.00
2019-05-11T11:20:18.770Z,93.80
2019-05-11T11:22:48.413Z,93.60
2019-05-11T11:25:18.120Z,93.70
2019-05-11T11:27:48.634Z,93.50
2019-05-11T11:30:18.797Z,93.20
2019-05-11T11:32:48.346Z,93.60
2019-05-11T11:35:18.698Z,93.80
2019-05-11T11:37:48.144Z,93.40
2019-05-11T11:40:18.182Z,93.60
2019-05-11T11:42:47.926Z,93.70
2019-05-11T11:45:18.325Z,93.20
2019-05-11T11:47:49.282Z,93.20
2019-05-11T11:50:19.475Z,93.50
2019-05-11T11:52:48.664Z,93.50
2019-05-11T11:55:18.760Z,93.60
2019-05-11T11:57:49.707Z,93.70
2019-05-11T12:00:19.704Z,94.30
2019-05-11T12:02:49.153Z,93.90
2019-05-11T12:05:18.671Z,93.60
2019-05-11T12:07:48.998Z,93.30
2019-05-11T12:10:18.759Z,93.10
2019-05-11T12:12:47.890Z,93.00
2019-05-11T12:15:17.750Z,93.00
2019-05-11T12:17:48.265Z,93.00
2019-05-11T12:20:18.210Z,93.20
2019-05-11T12:22:47.778Z,93.10
2019-05-11T12:25:18.582Z,93.10
2019-05-11T12:27:49.026Z,93.10
2019-05-11T12:30:18.539Z,92.90
2019-05-11T12:32:49.458Z,93.00
2019-05-11T12:35:19.348Z,93.00
2019-05-11T12:37:48.691Z,93.10
2019-05-11T12:40:18.232Z,93.10
2019-05-11T12:42:48.913Z,93.60
2019-05-11T12:45:18.521Z,94.00
2019-05-11T12:47:48.103Z,94.20
2019-05-11T12:50:19.021Z,94.60
2019-05-11T12:52:48.392Z,95.00
2019-05-11T12:55:18.089Z,95.20
2019-05-11T12:57:48.096Z,95.20
2019-05-11T13:00:17.983Z,94.80
2019-05-11T13:02:48.542Z,94.50
2019-05-11T13:05:18.218Z,94.70
2019-05-11T13:07:48.365Z,95.20
2019-05-11T13:10:18.818Z,94.50
2019-05-11T13:12:49.238Z,94.80
2019-05-11T13:15:19.577Z,95.00
2019-05-11T13:17:49.306Z,95.20
2019-05-11T13:20:18.748Z,95.40
2019-05-11T13:22:48.857Z,95.20
2019-05-11T13:25:18.429Z,95.50
2019-05-11T13:27:49.154Z,95.40
2019-05-11T13:30:19.030Z,95.20
2019-05-11T13:32:49.085Z,95.20
2019-05-11T13:35:18.720Z,95.00
2019-05-11T13:37:48.153Z,95.20
2019-05-11T13:40:18.441Z,94.80
2019-05-11T13:42:48.931Z,95.00
2019-05-11T13:45:18.876Z,95.10
2019-05-11T13:47:54.664Z,95.20
2019-05-11T13:50:19.275Z,95.20
2019-05-11T13:52:48.472Z,95.20
2019-05-11T13:55:18.367Z,95.10
2019-05-11T13:57:48.568Z,95.30
2019-05-11T14:00:18.033Z,95.70
2019-05-11T14:02:48.494Z,95.70
2019-05-11T14:05:18.164Z,96.10
2019-05-11T14:07:48.293Z,96.60
2019-05-11T14:10:18.305Z,96.20
2019-05-11T14:12:47.871Z,95.90
2019-05-11T14:15:18.866Z,96.40
2019-05-11T14:17:48.880Z,96.00
2019-05-11T14:20:19.589Z,96.20
2019-05-11T14:22:48.802Z,96.50
2019-05-11T14:25:18.485Z,96.60
2019-05-11T14:27:48.209Z,96.60
2019-05-11T14:30:19.110Z,97.10
2019-05-11T14:32:48.596Z,97.30
2019-05-11T14:35:18.843Z,97.30
2019-05-11T14:37:48.745Z,98.00
2019-05-11T14:40:18.074Z,98.30
2019-05-11T14:42:48.917Z,98.70
2019-05-11T14:45:18.787Z,98.40
2019-05-11T14:47:48.490Z,97.90
2019-05-11T14:50:18.862Z,98.20
2019-05-11T14:52:49.089Z,98.40
2019-05-11T14:55:18.612Z,99.00
2019-05-11T14:57:48.616Z,99.70
2019-05-11T15:00:18.636Z,99.60
2019-05-11T15:02:49.552Z,99.80
2019-05-11T15:05:19.900Z,99.80
2019-05-11T15:07:51.910Z,99.50
2019-05-11T15:10:20.971Z,99.20
2019-05-11T15:12:50.202Z,99.40
2019-05-11T15:15:19.682Z,99.30
2019-05-11T15:17:49.442Z,99.30
2019-05-11T15:20:20.003Z,98.60
2019-05-11T15:22:49.255Z,98.40
2019-05-11T15:25:19.772Z,98.40
2019-05-11T15:27:49.417Z,98.60
2019-05-11T15:30:19.191Z,98.80
2019-05-11T15:32:48.597Z,99.10
2019-05-11T15:35:18.709Z,99.40
2019-05-11T15:37:48.581Z,99.50
2019-05-11T15:40:19.083Z,99.50
2019-05-11T15:42:48.827Z,99.80
2019-05-11T15:45:18.948Z,99.70
2019-05-11T15:47:48.858Z,99.70
2019-05-11T15:50:19.300Z,99.60
2019-05-11T15:52:49.170Z,99.60
2019-05-11T15:55:19.199Z,99.60
2019-05-11T15:57:48.838Z,99.70
2019-05-11T16:00:18.462Z,99.60
2019-05-11T16:02:49.013Z,99.80
2019-05-11T16:05:18.825Z,99.90
2019-05-11T16:07:49.328Z,99.90
2019-05-11T16:10:19.059Z,99.90
2019-05-11T16:12:49.039Z,99.90
2019-05-11T16:15:19.333Z,99.90
2019-05-11T16:17:49.055Z,99.90
2019-05-11T16:20:18.507Z,99.90
2019-05-11T16:22:48.198Z,99.90
2019-05-11T16:25:19.742Z,99.90
2019-05-11T16:27:48.817Z,99.90
2019-05-11T16:30:21.745Z,99.90
2019-05-11T16:32:49.842Z,99.90
2019-05-11T16:35:19.199Z,99.90
2019-05-11T16:37:48.896Z,99.90
2019-05-11T16:40:20.748Z,99.90
2019-05-11T16:42:49.488Z,99.90
2019-05-11T16:45:19.305Z,99.90
2019-05-11T16:47:48.818Z,99.90
2019-05-11T16:50:18.496Z,99.90
2019-05-11T16:52:48.621Z,99.90
2019-05-11T16:55:18.581Z,99.90
2019-05-11T16:57:48.644Z,99.90
2019-05-11T17:00:18.282Z,99.90
2019-05-11T17:02:49.046Z,99.90
2019-05-11T17:05:26.541Z,99.90
2019-05-11T17:07:49.646Z,99.90
2019-05-11T17:10:19.282Z,99.90
2019-05-11T17:12:49.054Z,99.90
2019-05-11T17:15:19.165Z,99.90
2019-05-11T17:17:49.031Z,99.90
2019-05-11T17:20:19.451Z,99.90
2019-05-11T17:22:49.026Z,99.90
2019-05-11T17:25:19.183Z,99.90
2019-05-11T17:27:49.200Z,99.90
2019-05-11T17:30:19.641Z,99.90
2019-05-11T17:32:49.885Z,99.90
2019-05-11T17:35:19.654Z,99.90
2019-05-11T17:37:49.158Z,99.90
2019-05-11T17:40:22.760Z,99.90
2019-05-11T17:42:53.326Z,99.90
2019-05-11T17:45:20.772Z,99.90
2019-05-11T17:47:50.181Z,99.90
2019-05-11T17:50:19.475Z,99.70
2019-05-11T17:52:48.782Z,99.80
2019-05-11T17:55:18.614Z,99.80
2019-05-11T17:57:49.629Z,99.30
2019-05-11T18:00:20.150Z,99.40
2019-05-11T18:02:49.692Z,99.60
2019-05-11T18:05:18.986Z,99.60
2019-05-11T18:07:48.194Z,99.50
2019-05-11T18:10:21.850Z,99.50
2019-05-11T18:12:51.035Z,99.50
2019-05-11T18:15:20.206Z,99.50
2019-05-11T18:17:49.443Z,99.70
2019-05-11T18:20:21.631Z,99.60
2019-05-11T18:22:50.853Z,99.70
2019-05-11T18:25:20.075Z,99.70
2019-05-11T18:27:49.298Z,99.80
2019-05-11T18:30:18.637Z,99.70
2019-05-11T18:32:48.928Z,99.70
2019-05-11T18:35:19.377Z,99.80
2019-05-11T18:37:49.099Z,99.90
2019-05-11T18:40:18.848Z,99.90
2019-05-11T18:42:48.979Z,99.90
2019-05-11T18:45:19.357Z,99.90
2019-05-11T18:47:49.281Z,99.90
2019-05-11T18:50:29.774Z,99.90
2019-05-11T18:52:50.030Z,99.90
2019-05-11T18:55:19.379Z,99.90
2019-05-11T18:57:49.252Z,99.90
2019-05-11T19:00:18.898Z,99.90
2019-05-11T19:02:49.385Z,99.90
2019-05-11T19:05:18.908Z,99.80
2019-05-11T19:07:48.472Z,99.80
2019-05-11T19:10:17.776Z,99.70
2019-05-11T19:12:48.828Z,99.40
2019-05-11T19:15:19.089Z,99.60
2019-05-11T19:17:49.329Z,99.20
2019-05-11T19:20:18.779Z,99.30
2019-05-11T19:22:48.364Z,99.20
2019-05-11T19:25:18.869Z,99.20
2019-05-11T19:27:50.584Z,99.30
2019-05-11T19:30:19.713Z,99.20
2019-05-11T19:32:49.004Z,99.20
2019-05-11T19:35:20.977Z,99.10
2019-05-11T19:37:49.297Z,98.70
2019-05-11T19:40:18.659Z,98.70
2019-05-11T19:42:53.850Z,98.80
2019-05-11T19:45:23.475Z,98.60
2019-05-11T19:47:52.943Z,98.60
2019-05-11T19:50:22.236Z,98.50
2019-05-11T19:52:51.768Z,98.60
2019-05-11T19:55:20.998Z,98.60
2019-05-11T19:57:50.431Z,98.80
2019-05-11T20:00:20.717Z,98.90
2019-05-11T20:02:49.956Z,99.00
2019-05-11T20:05:19.444Z,99.00
2019-05-11T20:07:49.122Z,99.10
2019-05-11T20:10:19.031Z,99.20
2019-05-11T20:12:48.732Z,99.20
2019-05-11T20:15:18.996Z,99.10
2019-05-11T20:17:49.061Z,99.20
2019-05-11T20:20:19.053Z,99.10
2019-05-11T20:22:48.725Z,98.70
2019-05-11T20:25:19.154Z,98.70
2019-05-11T20:27:49.045Z,98.60
2019-05-11T20:30:19.349Z,97.00
2019-05-11T20:32:49.292Z,97.10
2019-05-11T20:35:18.758Z,97.10
2019-05-11T20:37:48.049Z,96.40
2019-05-11T20:40:18.349Z,96.10
2019-05-11T20:42:48.559Z,95.10
2019-05-11T20:45:19.003Z,93.80
2019-05-11T20:47:48.918Z,93.50
2019-05-11T20:50:18.601Z,92.00
2019-05-11T20:52:48.451Z,89.80
2019-05-11T20:55:18.347Z,87.20
2019-05-11T20:57:48.559Z,85.50
2019-05-11T21:00:19.865Z,85.30
2019-05-11T21:02:49.281Z,85.40
2019-05-11T21:05:18.781Z,82.20
2019-05-11T21:07:48.248Z,81.00
2019-05-11T21:10:17.898Z,81.10
2019-05-11T21:12:47.042Z,81.00
2019-05-11T21:15:17.680Z,79.70
2019-05-11T21:17:48.210Z,78.30
2019-05-11T21:20:18.289Z,77.80
2019-05-11T21:22:48.702Z,78.10
2019-05-11T21:25:18.366Z,78.20
2019-05-11T21:27:48.644Z,77.80
2019-05-11T21:30:18.666Z,77.60
2019-05-11T21:32:48.020Z,77.00
2019-05-11T21:35:19.246Z,77.50
2019-05-11T21:37:48.726Z,77.20
2019-05-11T21:40:18.319Z,77.10
2019-05-11T21:42:47.693Z,77.50
2019-05-11T21:45:18.286Z,76.70
2019-05-11T21:47:48.929Z,77.10
2019-05-11T21:50:19.240Z,76.80
2019-05-11T21:52:48.946Z,77.30
2019-05-11T21:55:18.211Z,77.40
2019-05-11T21:57:49.706Z,76.20
2019-05-11T22:00:19.150Z,76.70
2019-05-11T22:02:48.709Z,76.70
2019-05-11T22:05:20.756Z,77.00
2019-05-11T22:08:10.308Z,76.80
2019-05-11T22:10:39.696Z,77.20
2019-05-11T22:13:08.987Z,77.50
2019-05-11T22:15:38.709Z,77.50
2019-05-11T22:18:08.162Z,77.80
2019-05-11T22:20:40.552Z,77.60
2019-05-11T22:23:08.647Z,77.60
2019-05-11T22:25:38.329Z,77.70
2019-05-11T22:28:08.457Z,78.10
2019-05-11T22:30:39.281Z,78.30
2019-05-11T22:33:08.938Z,79.20
2019-05-11T22:35:38.430Z,79.70
2019-05-11T22:38:08.435Z,79.90
2019-05-11T22:40:38.338Z,80.20
2019-05-11T22:43:09.426Z,80.50
2019-05-11T22:45:38.866Z,80.80
2019-05-11T22:48:08.139Z,81.10
2019-05-11T22:50:38.173Z,81.40
2019-05-11T22:53:08.724Z,81.80
2019-05-11T22:55:38.584Z,82.10
2019-05-11T22:58:08.445Z,82.70
2019-05-11T23:00:43.134Z,83.10
2019-05-11T23:03:12.315Z,83.80
2019-05-11T23:05:42.103Z,84.10
2019-05-11T23:08:11.443Z,84.30
2019-05-11T23:10:40.748Z,84.80
2019-05-11T23:13:11.370Z,85.10
2019-05-11T23:15:40.898Z,85.10
2019-05-11T23:18:10.048Z,85.40
2019-05-11T23:20:39.207Z,85.30
2019-05-11T23:23:09.010Z,85.50
2019-05-11T23:25:38.225Z,86.00
2019-05-11T23:28:07.403Z,86.20
2019-05-11T23:30:38.977Z,86.70
2019-05-11T23:33:08.046Z,87.00
2019-05-11T23:35:38.245Z,87.30
2019-05-11T23:38:07.762Z,87.60
2019-05-11T23:40:37.933Z,87.70
2019-05-11T23:43:08.788Z,88.80
2019-05-11T23:45:39.056Z,88.30
2019-05-11T23:48:08.306Z,88.50
2019-05-11T23:50:38.628Z,89.00
2019-05-11T23:53:10.352Z,89.30
2019-05-11T23:55:39.076Z,89.60
2019-05-11T23:58:08.462Z,90.00
